Terminal Aerodrome Forecast
Issued by NWS

Home | Current Version | Previous Version | Text Only | Print | Product List | Glossary On
Versions: 1 2 3 4 5 6 7 8 9 10 11 12 13 14 15 16 17 18 19 20 21 22 23 24 25 26 27
636
FTUS41 KPBZ 301956 AAA
TAFFKL
TAF AMD
KFKL 301956Z 3020/0118 22010G20KT P6SM SCT050
     FM302100 22010G20KT P6SM VCTS BKN050CB
      TEMPO 3021/3022 25015G30KT 2SM -TSRA
     FM302200 22010G20KT P6SM BKN050
     FM010000 15010KT P6SM BKN250
     FM011200 17012G20KT P6SM BKN060
     FM011600 18015G23KT P6SM -SHRA VCTS OVC040CB
      AMD LTD TO CLD VIS AND WIND=

USA.gov is the U.S. government's official web portal to all federal, state and local government web resources and services.